^^
Saratoga-Weather Station Historical Data
Daily Summary for March 18, 2020 Units:  Both    English   Metric
Daily Weekly Monthly Yearly Custom
  High: Low: Average:
Temperature: 73.2 °F /  22.9 °C 45.3 °F /  7.4 °C 61.5 °F /  16.4 °C
Dew Point: 53.1 °F /  11.7 °C 41.7 °F /  5.4 °C 47.1 °F /  8.4 °C
Humidity: 88% 37% 62%
Wind Speed: 12.1mph /  19.5km/h - 2.4mph /  3.8km/h
Wind Gust: 12mph /  19.3km/h - -
Wind- - WSW
Pressure: 30.2 in /  1023.7 hPa 30.2 in /  1021.0 hPa -
Precipitation: 0 in /  0.0 mm    
Historical Graphs
 
 
Tabular Data for March 18, 2020
Time Temperature Dew Point Pressure Wind Wind Speed Wind Gust Humidity Rainfall Rate (Hourly) solar
00:01 54.1 °F /  12.3 °C 44.6 °F /  7 °C 30.2in /  1022.4hPa WNW 0.9mph /  1.4km/h 1mph /  1.6km/h 70% 0in /  0.0mm 0 W/m2
00:06 54.1 °F /  12.3 °C 45 °F /  7.2 °C 30.2in /  1022.7hPa Calm   1mph /  1.6km/h 71% 0in /  0.0mm 0 W/m2
00:11 54 °F /  12.2 °C 44.8 °F /  7.1 °C 30.2in /  1022.7hPa Calm     71% 0in /  0.0mm 0 W/m2
00:17 54 °F /  12.2 °C 44.8 °F /  7.1 °C 30.2in /  1022.7hPa Calm     71% 0in /  0.0mm 0 W/m2
00:22 53.8 °F /  12.1 °C 44.6 °F /  7 °C 30.2in /  1022.7hPa Calm     71% 0in /  0.0mm 0 W/m2
00:27 53.8 °F /  12.1 °C 44.6 °F /  7 °C 30.2in /  1022.7hPa Calm     71% 0in /  0.0mm 0 W/m2
00:32 53.4 °F /  11.9 °C 44.2 °F /  6.8 °C 30.2in /  1022.7hPa Calm     71% 0in /  0.0mm 0 W/m2
00:37 53.4 °F /  11.9 °C 44.2 °F /  6.8 °C 30.2in /  1022.7hPa Calm     71% 0in /  0.0mm 0 W/m2
00:42 53.2 °F /  11.8 °C 44.1 °F /  6.7 °C 30.2in /  1022.7hPa Calm     71% 0in /  0.0mm 0 W/m2
00:47 53.1 °F /  11.7 °C 44.2 °F /  6.8 °C 30.2in /  1022.7hPa Calm     72% 0in /  0.0mm 0 W/m2
00:52 53.1 °F /  11.7 °C 44.2 °F /  6.8 °C 30.2in /  1022.7hPa Calm     72% 0in /  0.0mm 0 W/m2
00:57 52.9 °F /  11.6 °C 44.1 °F /  6.7 °C 30.2in /  1022.7hPa Calm   1mph /  1.6km/h 72% 0in /  0.0mm 0 W/m2
01:02 52.5 °F /  11.4 °C 44.1 °F /  6.7 °C 30.2in /  1022.7hPa Calm     73% 0in /  0.0mm 0 W/m2
01:07 52.3 °F /  11.3 °C 43.9 °F /  6.6 °C 30.2in /  1022.7hPa Calm     73% 0in /  0.0mm 0 W/m2
01:12 52.2 °F /  11.2 °C 44.1 °F /  6.7 °C 30.2in /  1022.7hPa Calm     74% 0in /  0.0mm 0 W/m2
01:17 52.2 °F /  11.2 °C 44.1 °F /  6.7 °C 30.2in /  1023.0hPa Calm     74% 0in /  0.0mm 0 W/m2
01:22 52 °F /  11.1 °C 44.2 °F /  6.8 °C 30.2in /  1023.0hPa Calm     75% 0in /  0.0mm 0 W/m2
01:27 51.6 °F /  10.9 °C 43.9 °F /  6.6 °C 30.2in /  1022.7hPa Calm     75% 0in /  0.0mm 0 W/m2
01:32 51.4 °F /  10.8 °C 44.1 °F /  6.7 °C 30.2in /  1023.0hPa Calm     76% 0in /  0.0mm 0 W/m2
01:37 51.3 °F /  10.7 °C 44.2 °F /  6.8 °C 30.2in /  1023.0hPa Calm   1mph /  1.6km/h 77% 0in /  0.0mm 0 W/m2
01:42 51.1 °F /  10.6 °C 44.4 °F /  6.9 °C 30.2in /  1023.0hPa WNW 0.9mph /  1.4km/h 1mph /  1.6km/h 78% 0in /  0.0mm 0 W/m2
01:47 50.9 °F /  10.5 °C 44.2 °F /  6.8 °C 30.2in /  1023.0hPa Calm   1mph /  1.6km/h 78% 0in /  0.0mm 0 W/m2
01:52 50.7 °F /  10.4 °C 44.1 °F /  6.7 °C 30.2in /  1023.0hPa Calm     78% 0in /  0.0mm 0 W/m2
01:57 50.5 °F /  10.3 °C 43.9 °F /  6.6 °C 30.2in /  1023.0hPa WNW 0.9mph /  1.4km/h 1mph /  1.6km/h 78% 0in /  0.0mm 0 W/m2
02:02 50.4 °F /  10.2 °C 44.1 °F /  6.7 °C 30.2in /  1023.0hPa Calm   1mph /  1.6km/h 79% 0in /  0.0mm 0 W/m2
02:07 50.4 °F /  10.2 °C 44.1 °F /  6.7 °C 30.2in /  1023.0hPa Calm     79% 0in /  0.0mm 0 W/m2
02:12 50.2 °F /  10.1 °C 43.9 °F /  6.6 °C 30.2in /  1023.0hPa Calm     79% 0in /  0.0mm 0 W/m2
02:17 49.8 °F /  9.9 °C 43.9 °F /  6.6 °C 30.2in /  1023.0hPa Calm   1mph /  1.6km/h 80% 0in /  0.0mm 0 W/m2
02:22 49.6 °F /  9.8 °C 43.7 °F /  6.5 °C 30.2in /  1023.0hPa Calm   1mph /  1.6km/h 80% 0in /  0.0mm 0 W/m2
02:27 49.5 °F /  9.7 °C 43.9 °F /  6.6 °C 30.2in /  1023.0hPa Calm     81% 0in /  0.0mm 0 W/m2
02:32 49.5 °F /  9.7 °C 43.9 °F /  6.6 °C 30.2in /  1023.0hPa WNW 0.9mph /  1.4km/h 1mph /  1.6km/h 81% 0in /  0.0mm 0 W/m2
02:37 49.3 °F /  9.6 °C 43.7 °F /  6.5 °C 30.2in /  1023.0hPa Calm     81% 0in /  0.0mm 0 W/m2
02:42 49.3 °F /  9.6 °C 43.7 °F /  6.5 °C 30.2in /  1023.0hPa Calm   1mph /  1.6km/h 81% 0in /  0.0mm 0 W/m2
02:47 49.1 °F /  9.5 °C 43.5 °F /  6.4 °C 30.2in /  1023.0hPa Calm     81% 0in /  0.0mm 0 W/m2
02:52 48.9 °F /  9.4 °C 43.3 °F /  6.3 °C 30.2in /  1023.0hPa Calm   1mph /  1.6km/h 81% 0in /  0.0mm 0 W/m2
02:57 48.9 °F /  9.4 °C 43.3 °F /  6.3 °C 30.2in /  1023.0hPa Calm     81% 0in /  0.0mm 0 W/m2
03:02 48.9 °F /  9.4 °C 43.7 °F /  6.5 °C 30.2in /  1023.0hPa Calm   2mph /  3.2km/h 82% 0in /  0.0mm 0 W/m2
03:07 48.7 °F /  9.3 °C 43.5 °F /  6.4 °C 30.2in /  1023.0hPa Calm     82% 0in /  0.0mm 0 W/m2
03:12 48.7 °F /  9.3 °C 43.5 °F /  6.4 °C 30.2in /  1023.0hPa Calm   2mph /  3.2km/h 82% 0in /  0.0mm 0 W/m2
03:17 48.6 °F /  9.2 °C 43.3 °F /  6.3 °C 30.2in /  1023.0hPa Calm     82% 0in /  0.0mm 0 W/m2
03:22 48.6 °F /  9.2 °C 43.3 °F /  6.3 °C 30.2in /  1023.0hPa Calm   2mph /  3.2km/h 82% 0in /  0.0mm 0 W/m2
03:27 48.4 °F /  9.1 °C 43.2 °F /  6.2 °C 30.2in /  1023.0hPa Calm   1mph /  1.6km/h 82% 0in /  0.0mm 0 W/m2
03:32 48.2 °F /  9 °C 43 °F /  6.1 °C 30.2in /  1023.0hPa Calm     82% 0in /  0.0mm 0 W/m2
03:37 48 °F /  8.9 °C 43.2 °F /  6.2 °C 30.2in /  1023.0hPa Calm     83% 0in /  0.0mm 0 W/m2
03:42 48 °F /  8.9 °C 43.2 °F /  6.2 °C 30.2in /  1023.0hPa Calm     83% 0in /  0.0mm 0 W/m2
03:47 47.8 °F /  8.8 °C 43 °F /  6.1 °C 30.2in /  1023.0hPa Calm     83% 0in /  0.0mm 0 W/m2
03:52 47.8 °F /  8.8 °C 43 °F /  6.1 °C 30.2in /  1023.0hPa Calm     83% 0in /  0.0mm 0 W/m2
03:58 47.8 °F /  8.8 °C 43 °F /  6.1 °C 30.2in /  1023.0hPa Calm   1mph /  1.6km/h 83% 0in /  0.0mm 0 W/m2
04:03 47.7 °F /  8.7 °C 42.8 °F /  6 °C 30.2in /  1023.0hPa Calm     83% 0in /  0.0mm 0 W/m2
04:08 47.7 °F /  8.7 °C 42.8 °F /  6 °C 30.2in /  1023.0hPa Calm     83% 0in /  0.0mm 0 W/m2
04:13 47.7 °F /  8.7 °C 42.8 °F /  6 °C 30.2in /  1023.0hPa Calm     83% 0in /  0.0mm 0 W/m2
04:18 47.7 °F /  8.7 °C 42.8 °F /  6 °C 30.2in /  1023.0hPa Calm     83% 0in /  0.0mm 0 W/m2
04:23 47.5 °F /  8.6 °C 42.6 °F /  5.9 °C 30.2in /  1023.0hPa Calm     83% 0in /  0.0mm 0 W/m2
04:28 47.3 °F /  8.5 °C 42.4 °F /  5.8 °C 30.2in /  1023.0hPa Calm     83% 0in /  0.0mm 0 W/m2
04:33 47.3 °F /  8.5 °C 42.8 °F /  6 °C 30.2in /  1023.0hPa Calm     84% 0in /  0.0mm 0 W/m2
04:38 47.1 °F /  8.4 °C 42.6 °F /  5.9 °C 30.2in /  1023.0hPa Calm   1mph /  1.6km/h 84% 0in /  0.0mm 0 W/m2
04:43 47.1 °F /  8.4 °C 42.6 °F /  5.9 °C 30.2in /  1023.0hPa Calm     84% 0in /  0.0mm 0 W/m2
04:48 46.9 °F /  8.3 °C 42.4 °F /  5.8 °C 30.2in /  1023.0hPa Calm   1mph /  1.6km/h 84% 0in /  0.0mm 0 W/m2
04:53 46.9 °F /  8.3 °C 42.4 °F /  5.8 °C 30.2in /  1023.0hPa Calm   1mph /  1.6km/h 84% 0in /  0.0mm 0 W/m2
04:58 46.8 °F /  8.2 °C 42.3 °F /  5.7 °C 30.2in /  1023.0hPa Calm     84% 0in /  0.0mm 0 W/m2
05:03 46.6 °F /  8.1 °C 42.1 °F /  5.6 °C 30.2in /  1023.0hPa Calm   1mph /  1.6km/h 84% 0in /  0.0mm 0 W/m2
05:08 46.6 °F /  8.1 °C 42.3 °F /  5.7 °C 30.2in /  1023.0hPa Calm     85% 0in /  0.0mm 0 W/m2
05:13 46.4 °F /  8 °C 42.1 °F /  5.6 °C 30.2in /  1023.0hPa Calm     85% 0in /  0.0mm 0 W/m2
05:18 46.2 °F /  7.9 °C 41.9 °F /  5.5 °C 30.2in /  1023.0hPa Calm     85% 0in /  0.0mm 0 W/m2
05:23 46 °F /  7.8 °C 42.1 °F /  5.6 °C 30.2in /  1023.0hPa Calm     86% 0in /  0.0mm 0 W/m2
05:28 46 °F /  7.8 °C 42.1 °F /  5.6 °C 30.2in /  1023.0hPa Calm     86% 0in /  0.0mm 0 W/m2
05:33 46 °F /  7.8 °C 42.1 °F /  5.6 °C 30.2in /  1023.0hPa Calm     86% 0in /  0.0mm 0 W/m2
05:38 45.9 °F /  7.7 °C 41.9 °F /  5.5 °C 30.2in /  1023.0hPa Calm     86% 0in /  0.0mm 0 W/m2
05:43 45.7 °F /  7.6 °C 41.7 °F /  5.4 °C 30.2in /  1023.0hPa Calm     86% 0in /  0.0mm 0 W/m2
05:48 45.7 °F /  7.6 °C 41.7 °F /  5.4 °C 30.2in /  1023.0hPa Calm     86% 0in /  0.0mm 0 W/m2
05:53 45.5 °F /  7.5 °C 41.9 °F /  5.5 °C 30.2in /  1023.0hPa Calm     87% 0in /  0.0mm 5 W/m2
05:58 45.5 °F /  7.5 °C 41.9 °F /  5.5 °C 30.2in /  1023.0hPa Calm     87% 0in /  0.0mm 7 W/m2
06:03 45.3 °F /  7.4 °C 41.7 °F /  5.4 °C 30.2in /  1023.0hPa Calm     87% 0in /  0.0mm 9 W/m2
06:08 45.3 °F /  7.4 °C 41.9 °F /  5.5 °C 30.2in /  1023.0hPa Calm     88% 0in /  0.0mm 11 W/m2
06:13 45.5 °F /  7.5 °C 42.1 °F /  5.6 °C 30.2in /  1023.0hPa Calm     88% 0in /  0.0mm 12 W/m2
06:18 45.5 °F /  7.5 °C 42.1 °F /  5.6 °C 30.2in /  1023.0hPa Calm     88% 0in /  0.0mm 14 W/m2
06:23 45.7 °F /  7.6 °C 42.3 °F /  5.7 °C 30.2in /  1023.0hPa Calm     88% 0in /  0.0mm 16 W/m2
06:28 45.7 °F /  7.6 °C 42.3 °F /  5.7 °C 30.2in /  1023.4hPa Calm     88% 0in /  0.0mm 18 W/m2
06:33 45.7 °F /  7.6 °C 42.3 °F /  5.7 °C 30.2in /  1023.4hPa Calm     88% 0in /  0.0mm 19 W/m2
06:38 45.9 °F /  7.7 °C 42.4 °F /  5.8 °C 30.2in /  1023.4hPa Calm     88% 0in /  0.0mm 21 W/m2
06:43 46 °F /  7.8 °C 42.6 °F /  5.9 °C 30.2in /  1023.4hPa Calm     88% 0in /  0.0mm 21 W/m2
06:48 46.2 °F /  7.9 °C 42.8 °F /  6 °C 30.2in /  1023.4hPa Calm     88% 0in /  0.0mm 25 W/m2
06:53 46.2 °F /  7.9 °C 42.6 °F /  5.9 °C 30.2in /  1023.4hPa Calm     87% 0in /  0.0mm 26 W/m2
06:58 46.6 °F /  8.1 °C 43 °F /  6.1 °C 30.2in /  1023.4hPa Calm     87% 0in /  0.0mm 26 W/m2
07:03 46.6 °F /  8.1 °C 42.6 °F /  5.9 °C 30.2in /  1023.4hPa Calm     86% 0in /  0.0mm 28 W/m2
07:08 46.8 °F /  8.2 °C 42.8 °F /  6 °C 30.2in /  1023.4hPa Calm     86% 0in /  0.0mm 28 W/m2
07:13 46.9 °F /  8.3 °C 43 °F /  6.1 °C 30.2in /  1023.4hPa Calm     86% 0in /  0.0mm 30 W/m2
07:18 47.1 °F /  8.4 °C 43.2 °F /  6.2 °C 30.2in /  1023.4hPa Calm     86% 0in /  0.0mm 30 W/m2
07:24 47.5 °F /  8.6 °C 43.5 °F /  6.4 °C 30.2in /  1023.4hPa Calm   1mph /  1.6km/h 86% 0in /  0.0mm 32 W/m2
07:29 48 °F /  8.9 °C 44.1 °F /  6.7 °C 30.2in /  1023.4hPa Calm   1mph /  1.6km/h 86% 0in /  0.0mm 32 W/m2
07:34 48.6 °F /  9.2 °C 44.2 °F /  6.8 °C 30.2in /  1023.4hPa NE 2mph /  3.2km/h 2mph /  3.2km/h 85% 0in /  0.0mm 33 W/m2
07:39 49.1 °F /  9.5 °C 44.4 °F /  6.9 °C 30.2in /  1023.4hPa ENE 0.9mph /  1.4km/h 2mph /  3.2km/h 84% 0in /  0.0mm 33 W/m2
07:44 49.5 °F /  9.7 °C 44.6 °F /  7 °C 30.2in /  1023.4hPa Calm   2mph /  3.2km/h 83% 0in /  0.0mm 70 W/m2
07:49 49.8 °F /  9.9 °C 44.6 °F /  7 °C 30.2in /  1023.4hPa Calm     82% 0in /  0.0mm 239 W/m2
07:54 50.4 °F /  10.2 °C 45.1 °F /  7.3 °C 30.2in /  1023.4hPa Calm   2mph /  3.2km/h 82% 0in /  0.0mm 257 W/m2
07:59 51.3 °F /  10.7 °C 45.7 °F /  7.6 °C 30.2in /  1023.4hPa Calm     81% 0in /  0.0mm 272 W/m2
08:04 52.3 °F /  11.3 °C 46 °F /  7.8 °C 30.2in /  1023.4hPa NE 0.9mph /  1.4km/h 1mph /  1.6km/h 79% 0in /  0.0mm 285 W/m2
08:09 53.1 °F /  11.7 °C 46 °F /  7.8 °C 30.2in /  1023.4hPa Calm   1mph /  1.6km/h 77% 0in /  0.0mm 299 W/m2
08:14 53.6 °F /  12 °C 46.2 °F /  7.9 °C 30.2in /  1023.4hPa Calm     76% 0in /  0.0mm 311 W/m2
08:19 54.9 °F /  12.7 °C 47.1 °F /  8.4 °C 30.2in /  1023.7hPa NE 0.9mph /  1.4km/h 2mph /  3.2km/h 75% 0in /  0.0mm 323 W/m2
08:24 55.8 °F /  13.2 °C 46.9 °F /  8.3 °C 30.2in /  1023.7hPa NE 2.9mph /  4.7km/h 3mph /  4.8km/h 72% 0in /  0.0mm 339 W/m2
08:29 56.1 °F /  13.4 °C 47.3 °F /  8.5 °C 30.2in /  1023.7hPa ENE 0.9mph /  1.4km/h 2mph /  3.2km/h 72% 0in /  0.0mm 352 W/m2
08:34 56.3 °F /  13.5 °C 46.9 °F /  8.3 °C 30.2in /  1023.7hPa NE 4mph /  6.4km/h 4mph /  6.4km/h 71% 0in /  0.0mm 364 W/m2
08:39 56.1 °F /  13.4 °C 46.8 °F /  8.2 °C 30.2in /  1023.7hPa ENE 2mph /  3.2km/h 3mph /  4.8km/h 71% 0in /  0.0mm 376 W/m2
08:44 56.7 °F /  13.7 °C 47.7 °F /  8.7 °C 30.2in /  1023.4hPa ENE 0.9mph /  1.4km/h 2mph /  3.2km/h 72% 0in /  0.0mm 392 W/m2
08:49 57 °F /  13.9 °C 47.7 °F /  8.7 °C 30.2in /  1023.7hPa Calm   2mph /  3.2km/h 71% 0in /  0.0mm 404 W/m2
08:54 57.2 °F /  14 °C 47.5 °F /  8.6 °C 30.2in /  1023.7hPa East 2mph /  3.2km/h 3mph /  4.8km/h 70% 0in /  0.0mm 415 W/m2
08:59 57.7 °F /  14.3 °C 47.7 °F /  8.7 °C 30.2in /  1023.7hPa ENE 2mph /  3.2km/h 3mph /  4.8km/h 69% 0in /  0.0mm 429 W/m2
09:04 58.3 °F /  14.6 °C 48.6 °F /  9.2 °C 30.2in /  1023.7hPa NE 0.9mph /  1.4km/h 3mph /  4.8km/h 70% 0in /  0.0mm 438 W/m2
09:09 58.6 °F /  14.8 °C 48.2 °F /  9 °C 30.2in /  1023.7hPa NE 0.9mph /  1.4km/h 4mph /  6.4km/h 68% 0in /  0.0mm 452 W/m2
09:14 59.2 °F /  15.1 °C 48.6 °F /  9.2 °C 30.2in /  1023.7hPa ENE 5mph /  8km/h 5mph /  8km/h 68% 0in /  0.0mm 466 W/m2
09:19 59.4 °F /  15.2 °C 48.4 °F /  9.1 °C 30.2in /  1023.7hPa East 2mph /  3.2km/h 5mph /  8km/h 67% 0in /  0.0mm 476 W/m2
09:24 60.1 °F /  15.6 °C 49.5 °F /  9.7 °C 30.2in /  1023.7hPa ESE 0.9mph /  1.4km/h 3mph /  4.8km/h 68% 0in /  0.0mm 492 W/m2
09:29 61 °F /  16.1 °C 49.1 °F /  9.5 °C 30.2in /  1023.7hPa East 6mph /  9.7km/h 6mph /  9.7km/h 65% 0in /  0.0mm 504 W/m2
09:35 61.3 °F /  16.3 °C 48.6 °F /  9.2 °C 30.2in /  1023.7hPa East 2mph /  3.2km/h 4mph /  6.4km/h 63% 0in /  0.0mm 512 W/m2
09:40 61.9 °F /  16.6 °C 49.1 °F /  9.5 °C 30.2in /  1023.7hPa ENE 2mph /  3.2km/h 3mph /  4.8km/h 63% 0in /  0.0mm 527 W/m2
09:45 62.4 °F /  16.9 °C 48.7 °F /  9.3 °C 30.2in /  1023.7hPa ENE 2.9mph /  4.7km/h 5mph /  8km/h 61% 0in /  0.0mm 538 W/m2
09:50 63 °F /  17.2 °C 48.9 °F /  9.4 °C 30.2in /  1023.7hPa SE 0.9mph /  1.4km/h 3mph /  4.8km/h 60% 0in /  0.0mm 554 W/m2
09:55 63.1 °F /  17.3 °C 48.6 °F /  9.2 °C 30.2in /  1023.7hPa ESE 0.9mph /  1.4km/h 2mph /  3.2km/h 59% 0in /  0.0mm 564 W/m2
10:00 63.5 °F /  17.5 °C 48 °F /  8.9 °C 30.2in /  1023.7hPa NE 2mph /  3.2km/h 3mph /  4.8km/h 57% 0in /  0.0mm 577 W/m2
10:05 64 °F /  17.8 °C 48.9 °F /  9.4 °C 30.2in /  1023.7hPa ENE 0.9mph /  1.4km/h 6mph /  9.7km/h 58% 0in /  0.0mm 587 W/m2
10:10 64.2 °F /  17.9 °C 47.7 °F /  8.7 °C 30.2in /  1023.7hPa Calm   3mph /  4.8km/h 55% 0in /  0.0mm 598 W/m2
10:15 64.4 °F /  18 °C 47.8 °F /  8.8 °C 30.2in /  1023.7hPa Calm   6mph /  9.7km/h 55% 0in /  0.0mm 598 W/m2
10:20 64.8 °F /  18.2 °C 47.3 °F /  8.5 °C 30.2in /  1023.7hPa ENE 0.9mph /  1.4km/h 2mph /  3.2km/h 53% 0in /  0.0mm 113 W/m2
10:25 65.3 °F /  18.5 °C 47.3 °F /  8.5 °C 30.2in /  1023.7hPa East 2.9mph /  4.7km/h 6mph /  9.7km/h 52% 0in /  0.0mm 619 W/m2
10:30 65.8 °F /  18.8 °C 47.1 °F /  8.4 °C 30.2in /  1023.7hPa Calm   1mph /  1.6km/h 51% 0in /  0.0mm 642 W/m2
10:35 66 °F /  18.9 °C 47.3 °F /  8.5 °C 30.2in /  1023.7hPa ESE 0.9mph /  1.4km/h 4mph /  6.4km/h 51% 0in /  0.0mm 650 W/m2
10:40 66.4 °F /  19.1 °C 47.7 °F /  8.7 °C 30.2in /  1023.7hPa East 2.9mph /  4.7km/h 3mph /  4.8km/h 51% 0in /  0.0mm 664 W/m2
10:45 66.9 °F /  19.4 °C 48.2 °F /  9 °C 30.2in /  1023.7hPa NNE 0.9mph /  1.4km/h 2mph /  3.2km/h 51% 0in /  0.0mm 671 W/m2
10:50 67.5 °F /  19.7 °C 48.2 °F /  9 °C 30.2in /  1023.7hPa ESE 0.9mph /  1.4km/h 2mph /  3.2km/h 50% 0in /  0.0mm 664 W/m2
10:55 67.8 °F /  19.9 °C 48.6 °F /  9.2 °C 30.2in /  1023.7hPa NNW 2.9mph /  4.7km/h 3mph /  4.8km/h 50% 0in /  0.0mm 689 W/m2
11:00 67.8 °F /  19.9 °C 48.6 °F /  9.2 °C 30.2in /  1023.7hPa North 2.9mph /  4.7km/h 4mph /  6.4km/h 50% 0in /  0.0mm 670 W/m2
11:05 67.8 °F /  19.9 °C 48 °F /  8.9 °C 30.2in /  1023.4hPa SW 2mph /  3.2km/h 4mph /  6.4km/h 49% 0in /  0.0mm 680 W/m2
11:10 67.8 °F /  19.9 °C 49.1 °F /  9.5 °C 30.2in /  1023.4hPa NW 4mph /  6.4km/h 6mph /  9.7km/h 51% 0in /  0.0mm 684 W/m2
11:15 67.6 °F /  19.8 °C 47.8 °F /  8.8 °C 30.2in /  1023.7hPa NNW 2.9mph /  4.7km/h 7mph /  11.3km/h 49% 0in /  0.0mm 705 W/m2
11:20 67.5 °F /  19.7 °C 48.2 °F /  9 °C 30.2in /  1023.4hPa WNW 6.9mph /  11.1km/h 7mph /  11.3km/h 50% 0in /  0.0mm 726 W/m2
11:25 67.5 °F /  19.7 °C 48.7 °F /  9.3 °C 30.2in /  1023.7hPa WNW 2.9mph /  4.7km/h 3mph /  4.8km/h 51% 0in /  0.0mm 731 W/m2
11:30 67.8 °F /  19.9 °C 49.1 °F /  9.5 °C 30.2in /  1023.7hPa WNW 2mph /  3.2km/h 8mph /  12.9km/h 51% 0in /  0.0mm 740 W/m2
11:35 67.8 °F /  19.9 °C 48.6 °F /  9.2 °C 30.2in /  1023.7hPa NNE 2mph /  3.2km/h 3mph /  4.8km/h 50% 0in /  0.0mm 740 W/m2
11:40 68 °F /  20 °C 49.3 °F /  9.6 °C 30.2in /  1023.7hPa NNW 2mph /  3.2km/h 8mph /  12.9km/h 51% 0in /  0.0mm 752 W/m2
11:45 68.2 °F /  20.1 °C 48.9 °F /  9.4 °C 30.2in /  1023.4hPa West 0.9mph /  1.4km/h 6mph /  9.7km/h 50% 0in /  0.0mm 761 W/m2
11:51 67.8 °F /  19.9 °C 48.6 °F /  9.2 °C 30.2in /  1023.4hPa NW 4.9mph /  7.9km/h 6mph /  9.7km/h 50% 0in /  0.0mm 768 W/m2
11:56 67.8 °F /  19.9 °C 48 °F /  8.9 °C 30.2in /  1023.4hPa WNW 2.9mph /  4.7km/h 6mph /  9.7km/h 49% 0in /  0.0mm 773 W/m2
12:01 68.2 °F /  20.1 °C 47.7 °F /  8.7 °C 30.2in /  1023.4hPa WNW 2.9mph /  4.7km/h 7mph /  11.3km/h 48% 0in /  0.0mm 780 W/m2
12:06 68.4 °F /  20.2 °C 47.8 °F /  8.8 °C 30.2in /  1023.4hPa WNW 4.9mph /  7.9km/h 8mph /  12.9km/h 48% 0in /  0.0mm 793 W/m2
12:11 68.4 °F /  20.2 °C 47.8 °F /  8.8 °C 30.2in /  1023.4hPa NW 4mph /  6.4km/h 4mph /  6.4km/h 48% 0in /  0.0mm 791 W/m2
12:16 68.4 °F /  20.2 °C 47.8 °F /  8.8 °C 30.2in /  1023.4hPa NW 2.9mph /  4.7km/h 6mph /  9.7km/h 48% 0in /  0.0mm 770 W/m2
12:21 68.5 °F /  20.3 °C 48 °F /  8.9 °C 30.2in /  1023.4hPa NW 4mph /  6.4km/h 6mph /  9.7km/h 48% 0in /  0.0mm 800 W/m2
12:26 68.7 °F /  20.4 °C 48.2 °F /  9 °C 30.2in /  1023.4hPa WNW 4.9mph /  7.9km/h 6mph /  9.7km/h 48% 0in /  0.0mm 758 W/m2
12:31 68.7 °F /  20.4 °C 47.7 °F /  8.7 °C 30.2in /  1023.4hPa NW 2mph /  3.2km/h 4mph /  6.4km/h 47% 0in /  0.0mm 812 W/m2
12:36 69.1 °F /  20.6 °C 49.1 °F /  9.5 °C 30.2in /  1023.4hPa NW 0.9mph /  1.4km/h 5mph /  8km/h 49% 0in /  0.0mm 819 W/m2
12:41 69.1 °F /  20.6 °C 48 °F /  8.9 °C 30.2in /  1023.4hPa WNW 6.9mph /  11.1km/h 9mph /  14.5km/h 47% 0in /  0.0mm 821 W/m2
12:46 68.7 °F /  20.4 °C 47.7 °F /  8.7 °C 30.2in /  1023.4hPa WNW 4.9mph /  7.9km/h 10mph /  16.1km/h 47% 0in /  0.0mm 803 W/m2
12:51 68.7 °F /  20.4 °C 48.2 °F /  9 °C 30.2in /  1023.4hPa WNW 4mph /  6.4km/h 6mph /  9.7km/h 48% 0in /  0.0mm 830 W/m2
12:56 68.7 °F /  20.4 °C 47.7 °F /  8.7 °C 30.2in /  1023.4hPa WSW 4mph /  6.4km/h 9mph /  14.5km/h 47% 0in /  0.0mm 710 W/m2
13:01 68.7 °F /  20.4 °C 47.1 °F /  8.4 °C 30.2in /  1023.4hPa WNW 8.1mph /  13km/h 8mph /  12.9km/h 46% 0in /  0.0mm 733 W/m2
13:07 68.5 °F /  20.3 °C 45.7 °F /  7.6 °C 30.2in /  1023.4hPa NW 2mph /  3.2km/h 3mph /  4.8km/h 44% 0in /  0.0mm 831 W/m2
13:12 68.7 °F /  20.4 °C 45.9 °F /  7.7 °C 30.2in /  1023.4hPa NW 2mph /  3.2km/h 11mph /  17.7km/h 44% 0in /  0.0mm 831 W/m2
13:17 68.7 °F /  20.4 °C 47.1 °F /  8.4 °C 30.2in /  1023.4hPa WNW 8.1mph /  13km/h 8mph /  12.9km/h 46% 0in /  0.0mm 830 W/m2
13:22 68.7 °F /  20.4 °C 46.6 °F /  8.1 °C 30.2in /  1023.4hPa West 6mph /  9.7km/h 7mph /  11.3km/h 45% 0in /  0.0mm 826 W/m2
13:27 69.3 °F /  20.7 °C 47.7 °F /  8.7 °C 30.2in /  1023.4hPa West 6.9mph /  11.1km/h 7mph /  11.3km/h 46% 0in /  0.0mm 837 W/m2
13:32 69.3 °F /  20.7 °C 46.9 °F /  8.3 °C 30.2in /  1023.4hPa WSW 2mph /  3.2km/h 8mph /  12.9km/h 45% 0in /  0.0mm 835 W/m2
13:37 69.4 °F /  20.8 °C 47.1 °F /  8.4 °C 30.2in /  1023.4hPa West 2mph /  3.2km/h 6mph /  9.7km/h 45% 0in /  0.0mm 816 W/m2
13:42 69.6 °F /  20.9 °C 47.8 °F /  8.8 °C 30.2in /  1023.0hPa WNW 2.9mph /  4.7km/h 8mph /  12.9km/h 46% 0in /  0.0mm 814 W/m2
13:47 69.8 °F /  21 °C 48 °F /  8.9 °C 30.2in /  1023.0hPa NNW 2mph /  3.2km/h 11mph /  17.7km/h 46% 0in /  0.0mm 830 W/m2
13:52 70.2 °F /  21.2 °C 48.4 °F /  9.1 °C 30.2in /  1023.0hPa West 6mph /  9.7km/h 8mph /  12.9km/h 46% 0in /  0.0mm 824 W/m2
13:57 70.2 °F /  21.2 °C 48.9 °F /  9.4 °C 30.2in /  1023.0hPa West 4mph /  6.4km/h 11mph /  17.7km/h 47% 0in /  0.0mm 831 W/m2
14:02 70.2 °F /  21.2 °C 48.9 °F /  9.4 °C 30.2in /  1023.0hPa WNW 2.9mph /  4.7km/h 8mph /  12.9km/h 47% 0in /  0.0mm 796 W/m2
14:07 70.3 °F /  21.3 °C 49.6 °F /  9.8 °C 30.2in /  1023.0hPa WNW 4mph /  6.4km/h 9mph /  14.5km/h 48% 0in /  0.0mm 824 W/m2
14:12 70.3 °F /  21.3 °C 49.1 °F /  9.5 °C 30.2in /  1023.0hPa WSW 2mph /  3.2km/h 4mph /  6.4km/h 47% 0in /  0.0mm 819 W/m2
14:17 70.3 °F /  21.3 °C 50.4 °F /  10.2 °C 30.2in /  1023.0hPa WNW 2.9mph /  4.7km/h 8mph /  12.9km/h 49% 0in /  0.0mm 796 W/m2
14:22 71.1 °F /  21.7 °C 49.8 °F /  9.9 °C 30.2in /  1022.7hPa NW 4mph /  6.4km/h 9mph /  14.5km/h 47% 0in /  0.0mm 703 W/m2
14:27 71.2 °F /  21.8 °C 49.5 °F /  9.7 °C 30.2in /  1022.7hPa WNW 6mph /  9.7km/h 7mph /  11.3km/h 46% 0in /  0.0mm 765 W/m2
14:32 70.5 °F /  21.4 °C 48.7 °F /  9.3 °C 30.2in /  1022.7hPa WNW 2.9mph /  4.7km/h 7mph /  11.3km/h 46% 0in /  0.0mm 840 W/m2
14:38 70.9 °F /  21.6 °C 49.1 °F /  9.5 °C 30.2in /  1022.7hPa NNE 0.9mph /  1.4km/h 5mph /  8km/h 46% 0in /  0.0mm 842 W/m2
14:43 71.2 °F /  21.8 °C 48.7 °F /  9.3 °C 30.2in /  1022.4hPa NW 2.9mph /  4.7km/h 7mph /  11.3km/h 45% 0in /  0.0mm 745 W/m2
14:48 71.8 °F /  22.1 °C 49.3 °F /  9.6 °C 30.2in /  1022.4hPa NNE 4.9mph /  7.9km/h 10mph /  16.1km/h 45% 0in /  0.0mm 643 W/m2
14:53 71.4 °F /  21.9 °C 50.2 °F /  10.1 °C 30.2in /  1022.4hPa NNE 0.9mph /  1.4km/h 3mph /  4.8km/h 47% 0in /  0.0mm 636 W/m2
14:58 71.2 °F /  21.8 °C 49.5 °F /  9.7 °C 30.2in /  1022.4hPa NW 4mph /  6.4km/h 7mph /  11.3km/h 46% 0in /  0.0mm 643 W/m2
15:03 71.2 °F /  21.8 °C 49.5 °F /  9.7 °C 30.2in /  1022.4hPa NNW 2mph /  3.2km/h 4mph /  6.4km/h 46% 0in /  0.0mm 621 W/m2
15:08 71.2 °F /  21.8 °C 50.5 °F /  10.3 °C 30.2in /  1022.4hPa NNW 0.9mph /  1.4km/h 1mph /  1.6km/h 48% 0in /  0.0mm 800 W/m2
15:13 71.8 °F /  22.1 °C 51.1 °F /  10.6 °C 30.2in /  1022.4hPa WNW 4.9mph /  7.9km/h 5mph /  8km/h 48% 0in /  0.0mm 759 W/m2
15:18 72 °F /  22.2 °C 51.3 °F /  10.7 °C 30.2in /  1022.4hPa West 6mph /  9.7km/h 8mph /  12.9km/h 48% 0in /  0.0mm 671 W/m2
15:23 71.4 °F /  21.9 °C 50.7 °F /  10.4 °C 30.2in /  1022.0hPa WSW 8.9mph /  14.3km/h 9mph /  14.5km/h 48% 0in /  0.0mm 654 W/m2
15:28 71.2 °F /  21.8 °C 50.5 °F /  10.3 °C 30.2in /  1022.0hPa West 2.9mph /  4.7km/h 8mph /  12.9km/h 48% 0in /  0.0mm 645 W/m2
15:33 71.4 °F /  21.9 °C 51.3 °F /  10.7 °C 30.2in /  1022.0hPa West 6.9mph /  11.1km/h 9mph /  14.5km/h 49% 0in /  0.0mm 598 W/m2
15:38 71.4 °F /  21.9 °C 51.3 °F /  10.7 °C 30.2in /  1022.0hPa West 6mph /  9.7km/h 6mph /  9.7km/h 49% 0in /  0.0mm 659 W/m2
15:43 71.8 °F /  22.1 °C 51.6 °F /  10.9 °C 30.2in /  1022.0hPa South 2mph /  3.2km/h 9mph /  14.5km/h 49% 0in /  0.0mm 622 W/m2
15:48 72 °F /  22.2 °C 50.7 °F /  10.4 °C 30.2in /  1022.4hPa South 2.9mph /  4.7km/h 10mph /  16.1km/h 47% 0in /  0.0mm 693 W/m2
15:53 71.8 °F /  22.1 °C 50.5 °F /  10.3 °C 30.2in /  1022.4hPa NW 2mph /  3.2km/h 4mph /  6.4km/h 47% 0in /  0.0mm 696 W/m2
15:58 72 °F /  22.2 °C 50 °F /  10 °C 30.2in /  1022.0hPa WSW 4.9mph /  7.9km/h 8mph /  12.9km/h 46% 0in /  0.0mm 649 W/m2
16:04 71.8 °F /  22.1 °C 49.3 °F /  9.6 °C 30.2in /  1022.0hPa West 2.9mph /  4.7km/h 5mph /  8km/h 45% 0in /  0.0mm 673 W/m2
16:09 72 °F /  22.2 °C 50 °F /  10 °C 30.2in /  1022.0hPa West 4mph /  6.4km/h 4mph /  6.4km/h 46% 0in /  0.0mm 650 W/m2
16:14 72.1 °F /  22.3 °C 50.7 °F /  10.4 °C 30.2in /  1022.0hPa WSW 8.1mph /  13km/h 9mph /  14.5km/h 47% 0in /  0.0mm 675 W/m2
16:19 72.3 °F /  22.4 °C 49.8 °F /  9.9 °C 30.2in /  1022.0hPa West 10.1mph /  16.3km/h 10mph /  16.1km/h 45% 0in /  0.0mm 645 W/m2
16:24 72.3 °F /  22.4 °C 49.8 °F /  9.9 °C 30.2in /  1022.0hPa WNW 2mph /  3.2km/h 8mph /  12.9km/h 45% 0in /  0.0mm 650 W/m2
16:29 72.3 °F /  22.4 °C 50.4 °F /  10.2 °C 30.2in /  1022.0hPa West 2.9mph /  4.7km/h 6mph /  9.7km/h 46% 0in /  0.0mm 638 W/m2
16:34 72.3 °F /  22.4 °C 50.9 °F /  10.5 °C 30.2in /  1022.0hPa WNW 8.1mph /  13km/h 8mph /  12.9km/h 47% 0in /  0.0mm 628 W/m2
16:39 72.7 °F /  22.6 °C 48.9 °F /  9.4 °C 30.2in /  1022.0hPa WSW 4.9mph /  7.9km/h 10mph /  16.1km/h 43% 0in /  0.0mm 610 W/m2
16:44 72.3 °F /  22.4 °C 48.6 °F /  9.2 °C 30.2in /  1022.0hPa West 2mph /  3.2km/h 10mph /  16.1km/h 43% 0in /  0.0mm 515 W/m2
16:49 72.7 °F /  22.6 °C 48.9 °F /  9.4 °C 30.2in /  1022.0hPa West 6mph /  9.7km/h 6mph /  9.7km/h 43% 0in /  0.0mm 582 W/m2
16:54 72.7 °F /  22.6 °C 48.9 °F /  9.4 °C 30.2in /  1022.0hPa NW 2.9mph /  4.7km/h 9mph /  14.5km/h 43% 0in /  0.0mm 561 W/m2
16:59 72.7 °F /  22.6 °C 49.5 °F /  9.7 °C 30.2in /  1022.0hPa WNW 4.9mph /  7.9km/h 8mph /  12.9km/h 44% 0in /  0.0mm 557 W/m2
17:04 72.3 °F /  22.4 °C 48 °F /  8.9 °C 30.2in /  1022.0hPa WSW 8.9mph /  14.3km/h 10mph /  16.1km/h 42% 0in /  0.0mm 555 W/m2
17:09 72.5 °F /  22.5 °C 47.5 °F /  8.6 °C 30.2in /  1022.0hPa WNW 12.1mph /  19.5km/h 12mph /  19.3km/h 41% 0in /  0.0mm 554 W/m2
17:14 72.7 °F /  22.6 °C 47.7 °F /  8.7 °C 30.2in /  1022.0hPa SW 2.9mph /  4.7km/h 7mph /  11.3km/h 41% 0in /  0.0mm 541 W/m2
17:19 72.7 °F /  22.6 °C 45.7 °F /  7.6 °C 30.2in /  1022.0hPa WNW 4mph /  6.4km/h 12mph /  19.3km/h 38% 0in /  0.0mm 529 W/m2
17:24 72.9 °F /  22.7 °C 46.4 °F /  8 °C 30.2in /  1022.0hPa NW 2mph /  3.2km/h 9mph /  14.5km/h 39% 0in /  0.0mm 513 W/m2
17:29 73 °F /  22.8 °C 46.6 °F /  8.1 °C 30.2in /  1021.7hPa WNW 8.9mph /  14.3km/h 11mph /  17.7km/h 39% 0in /  0.0mm 503 W/m2
17:34 73.2 °F /  22.9 °C 47.5 °F /  8.6 °C 30.2in /  1021.7hPa WSW 8.9mph /  14.3km/h 12mph /  19.3km/h 40% 0in /  0.0mm 492 W/m2
17:39 73 °F /  22.8 °C 48 °F /  8.9 °C 30.2in /  1021.7hPa WNW 6.9mph /  11.1km/h 9mph /  14.5km/h 41% 0in /  0.0mm 478 W/m2
17:44 72.5 °F /  22.5 °C 47.5 °F /  8.6 °C 30.2in /  1021.7hPa NW 2mph /  3.2km/h 8mph /  12.9km/h 41% 0in /  0.0mm 466 W/m2
17:49 72.7 °F /  22.6 °C 46.9 °F /  8.3 °C 30.2in /  1021.7hPa West 6.9mph /  11.1km/h 12mph /  19.3km/h 40% 0in /  0.0mm 455 W/m2
17:54 72.7 °F /  22.6 °C 46.9 °F /  8.3 °C 30.2in /  1021.7hPa NW 4mph /  6.4km/h 10mph /  16.1km/h 40% 0in /  0.0mm 441 W/m2
17:59 72.7 °F /  22.6 °C 46.9 °F /  8.3 °C 30.2in /  1021.7hPa WNW 4mph /  6.4km/h 7mph /  11.3km/h 40% 0in /  0.0mm 427 W/m2
18:04 72.7 °F /  22.6 °C 46.9 °F /  8.3 °C 30.2in /  1021.7hPa WNW 6.9mph /  11.1km/h 9mph /  14.5km/h 40% 0in /  0.0mm 418 W/m2
18:09 72.9 °F /  22.7 °C 46.4 °F /  8 °C 30.2in /  1021.3hPa West 6mph /  9.7km/h 10mph /  16.1km/h 39% 0in /  0.0mm 403 W/m2
18:14 73 °F /  22.8 °C 46.6 °F /  8.1 °C 30.2in /  1021.3hPa WSW 4mph /  6.4km/h 8mph /  12.9km/h 39% 0in /  0.0mm 390 W/m2
18:19 73 °F /  22.8 °C 46.6 °F /  8.1 °C 30.2in /  1021.3hPa West 6mph /  9.7km/h 8mph /  12.9km/h 39% 0in /  0.0mm 378 W/m2
18:24 72.9 °F /  22.7 °C 46.4 °F /  8 °C 30.2in /  1021.3hPa WNW 2.9mph /  4.7km/h 6mph /  9.7km/h 39% 0in /  0.0mm 366 W/m2
18:29 73.2 °F /  22.9 °C 46 °F /  7.8 °C 30.2in /  1021.3hPa NNW 4.9mph /  7.9km/h 8mph /  12.9km/h 38% 0in /  0.0mm 352 W/m2
18:34 73.2 °F /  22.9 °C 46.8 °F /  8.2 °C 30.2in /  1021.3hPa NNW 2.9mph /  4.7km/h 6mph /  9.7km/h 39% 0in /  0.0mm 341 W/m2
18:39 73 °F /  22.8 °C 45.1 °F /  7.3 °C 30.2in /  1021.3hPa NNW 2mph /  3.2km/h 7mph /  11.3km/h 37% 0in /  0.0mm 323 W/m2
18:44 73 °F /  22.8 °C 45.1 °F /  7.3 °C 30.2in /  1021.3hPa WSW 6.9mph /  11.1km/h 9mph /  14.5km/h 37% 0in /  0.0mm 315 W/m2
18:49 72.9 °F /  22.7 °C 45.7 °F /  7.6 °C 30.2in /  1021.3hPa West 2.9mph /  4.7km/h 6mph /  9.7km/h 38% 0in /  0.0mm 302 W/m2
18:54 72.7 °F /  22.6 °C 45.7 °F /  7.6 °C 30.2in /  1021.0hPa WNW 4mph /  6.4km/h 9mph /  14.5km/h 38% 0in /  0.0mm 288 W/m2
18:59 72.7 °F /  22.6 °C 46.2 °F /  7.9 °C 30.2in /  1021.3hPa NW 4.9mph /  7.9km/h 7mph /  11.3km/h 39% 0in /  0.0mm 276 W/m2
19:04 72.7 °F /  22.6 °C 46.2 °F /  7.9 °C 30.2in /  1021.3hPa West 4mph /  6.4km/h 8mph /  12.9km/h 39% 0in /  0.0mm 264 W/m2
19:09 72.3 °F /  22.4 °C 46 °F /  7.8 °C 30.2in /  1021.3hPa West 2mph /  3.2km/h 4mph /  6.4km/h 39% 0in /  0.0mm 250 W/m2
19:14 72.5 °F /  22.5 °C 46.8 °F /  8.2 °C 30.2in /  1021.3hPa WSW 2.9mph /  4.7km/h 6mph /  9.7km/h 40% 0in /  0.0mm 237 W/m2
19:19 72.5 °F /  22.5 °C 47.5 °F /  8.6 °C 30.2in /  1021.3hPa WSW 4mph /  6.4km/h 5mph /  8km/h 41% 0in /  0.0mm 223 W/m2
19:24 72.3 °F /  22.4 °C 47.3 °F /  8.5 °C 30.2in /  1021.0hPa West 2.9mph /  4.7km/h 4mph /  6.4km/h 41% 0in /  0.0mm 207 W/m2
19:29 72.1 °F /  22.3 °C 47.8 °F /  8.8 °C 30.2in /  1021.3hPa WNW 0.9mph /  1.4km/h 6mph /  9.7km/h 42% 0in /  0.0mm 193 W/m2
19:34 72.1 °F /  22.3 °C 47.8 °F /  8.8 °C 30.2in /  1021.3hPa WNW 2.9mph /  4.7km/h 5mph /  8km/h 42% 0in /  0.0mm 181 W/m2
19:39 72.1 °F /  22.3 °C 48.4 °F /  9.1 °C 30.2in /  1021.3hPa WSW 4mph /  6.4km/h 7mph /  11.3km/h 43% 0in /  0.0mm 163 W/m2
19:44 72 °F /  22.2 °C 48.9 °F /  9.4 °C 30.2in /  1021.0hPa West 2.9mph /  4.7km/h 5mph /  8km/h 44% 0in /  0.0mm 149 W/m2
19:49 71.8 °F /  22.1 °C 48.7 °F /  9.3 °C 30.2in /  1021.3hPa West 4mph /  6.4km/h 6mph /  9.7km/h 44% 0in /  0.0mm 135 W/m2
19:54 71.6 °F /  22 °C 49.1 °F /  9.5 °C 30.2in /  1021.3hPa WNW 2.9mph /  4.7km/h 4mph /  6.4km/h 45% 0in /  0.0mm 116 W/m2
19:59 71.4 °F /  21.9 °C 49.6 °F /  9.8 °C 30.2in /  1021.3hPa WNW 2.9mph /  4.7km/h 8mph /  12.9km/h 46% 0in /  0.0mm 105 W/m2
20:04 71.2 °F /  21.8 °C 50 °F /  10 °C 30.2in /  1021.3hPa SW 4mph /  6.4km/h 5mph /  8km/h 47% 0in /  0.0mm 97 W/m2
20:09 71.1 °F /  21.7 °C 49.8 °F /  9.9 °C 30.2in /  1021.3hPa WSW 2.9mph /  4.7km/h 8mph /  12.9km/h 47% 0in /  0.0mm 83 W/m2
20:14 70.9 °F /  21.6 °C 50.2 °F /  10.1 °C 30.2in /  1021.3hPa West 2mph /  3.2km/h 3mph /  4.8km/h 48% 0in /  0.0mm 74 W/m2
20:19 70.9 °F /  21.6 °C 50.7 °F /  10.4 °C 30.2in /  1021.3hPa NW 2.9mph /  4.7km/h 4mph /  6.4km/h 49% 0in /  0.0mm 63 W/m2
20:24 70.5 °F /  21.4 °C 50.4 °F /  10.2 °C 30.2in /  1021.3hPa WNW 2.9mph /  4.7km/h 4mph /  6.4km/h 49% 0in /  0.0mm 53 W/m2
20:29 70.2 °F /  21.2 °C 50.7 °F /  10.4 °C 30.2in /  1021.3hPa West 6mph /  9.7km/h 6mph /  9.7km/h 50% 0in /  0.0mm 44 W/m2
20:34 69.8 °F /  21 °C 50.9 °F /  10.5 °C 30.2in /  1021.3hPa WNW 2.9mph /  4.7km/h 6mph /  9.7km/h 51% 0in /  0.0mm 35 W/m2
20:39 69.4 °F /  20.8 °C 51.1 °F /  10.6 °C 30.2in /  1021.3hPa WSW 2mph /  3.2km/h 5mph /  8km/h 52% 0in /  0.0mm 26 W/m2
20:44 69.1 °F /  20.6 °C 50.7 °F /  10.4 °C 30.2in /  1021.3hPa West 6.9mph /  11.1km/h 7mph /  11.3km/h 52% 0in /  0.0mm 19 W/m2
20:49 68.5 °F /  20.3 °C 50.7 °F /  10.4 °C 30.2in /  1021.3hPa West 2mph /  3.2km/h 3mph /  4.8km/h 53% 0in /  0.0mm 12 W/m2
20:54 68.2 °F /  20.1 °C 50.9 °F /  10.5 °C 30.2in /  1021.3hPa SW 2.9mph /  4.7km/h 7mph /  11.3km/h 54% 0in /  0.0mm 9 W/m2
20:59 67.6 °F /  19.8 °C 50.4 °F /  10.2 °C 30.2in /  1021.3hPa WSW 2.9mph /  4.7km/h 6mph /  9.7km/h 54% 0in /  0.0mm 7 W/m2
21:04 67.5 °F /  19.7 °C 50.7 °F /  10.4 °C 30.2in /  1021.3hPa West 2.9mph /  4.7km/h 5mph /  8km/h 55% 0in /  0.0mm 7 W/m2
21:09 67.1 °F /  19.5 °C 50.9 °F /  10.5 °C 30.2in /  1021.3hPa West 2mph /  3.2km/h 6mph /  9.7km/h 56% 0in /  0.0mm 5 W/m2
21:14 66.9 °F /  19.4 °C 50.7 °F /  10.4 °C 30.2in /  1021.3hPa West 8.1mph /  13km/h 11mph /  17.7km/h 56% 0in /  0.0mm 0 W/m2
21:19 66.7 °F /  19.3 °C 50.5 °F /  10.3 °C 30.2in /  1021.3hPa WNW 2.9mph /  4.7km/h 7mph /  11.3km/h 56% 0in /  0.0mm 0 W/m2
21:24 66.6 °F /  19.2 °C 50.9 °F /  10.5 °C 30.2in /  1021.3hPa WSW 4mph /  6.4km/h 6mph /  9.7km/h 57% 0in /  0.0mm 0 W/m2
21:29 66.6 °F /  19.2 °C 50.9 °F /  10.5 °C 30.2in /  1021.3hPa WSW 4mph /  6.4km/h 11mph /  17.7km/h 57% 0in /  0.0mm 0 W/m2
21:34 66.4 °F /  19.1 °C 50.7 °F /  10.4 °C 30.2in /  1021.3hPa West 6.9mph /  11.1km/h 11mph /  17.7km/h 57% 0in /  0.0mm 0 W/m2
21:39 66.2 °F /  19 °C 50.9 °F /  10.5 °C 30.2in /  1021.3hPa West 6.9mph /  11.1km/h 7mph /  11.3km/h 58% 0in /  0.0mm 0 W/m2
21:44 66 °F /  18.9 °C 51.3 °F /  10.7 °C 30.2in /  1021.3hPa West 2.9mph /  4.7km/h 7mph /  11.3km/h 59% 0in /  0.0mm 0 W/m2
21:49 66 °F /  18.9 °C 51.3 °F /  10.7 °C 30.2in /  1021.3hPa West 4mph /  6.4km/h 11mph /  17.7km/h 59% 0in /  0.0mm 0 W/m2
21:54 66 °F /  18.9 °C 51.8 °F /  11 °C 30.2in /  1021.3hPa WSW 4mph /  6.4km/h 12mph /  19.3km/h 60% 0in /  0.0mm 0 W/m2
21:59 66 °F /  18.9 °C 52.2 °F /  11.2 °C 30.2in /  1021.3hPa West 4mph /  6.4km/h 6mph /  9.7km/h 61% 0in /  0.0mm 0 W/m2
22:05 66 °F /  18.9 °C 52.2 °F /  11.2 °C 30.2in /  1021.3hPa West 6.9mph /  11.1km/h 12mph /  19.3km/h 61% 0in /  0.0mm 0 W/m2
22:10 66 °F /  18.9 °C 52.7 °F /  11.5 °C 30.2in /  1021.7hPa West 4mph /  6.4km/h 8mph /  12.9km/h 62% 0in /  0.0mm 0 W/m2
22:15 65.8 °F /  18.8 °C 52.5 °F /  11.4 °C 30.2in /  1021.7hPa SW 2mph /  3.2km/h 7mph /  11.3km/h 62% 0in /  0.0mm 0 W/m2
22:20 65.7 °F /  18.7 °C 52.7 °F /  11.5 °C 30.2in /  1021.7hPa WNW 4.9mph /  7.9km/h 9mph /  14.5km/h 63% 0in /  0.0mm 0 W/m2
22:25 65.7 °F /  18.7 °C 52.7 °F /  11.5 °C 30.2in /  1021.7hPa West 6mph /  9.7km/h 10mph /  16.1km/h 63% 0in /  0.0mm 0 W/m2
22:30 65.7 °F /  18.7 °C 52.7 °F /  11.5 °C 30.2in /  1021.7hPa WNW 2mph /  3.2km/h 8mph /  12.9km/h 63% 0in /  0.0mm 0 W/m2
22:35 65.5 °F /  18.6 °C 53.1 °F /  11.7 °C 30.2in /  1021.7hPa WNW 2mph /  3.2km/h 7mph /  11.3km/h 64% 0in /  0.0mm 0 W/m2
22:40 65.1 °F /  18.4 °C 52.7 °F /  11.5 °C 30.2in /  1021.7hPa WSW 4.9mph /  7.9km/h 8mph /  12.9km/h 64% 0in /  0.0mm 0 W/m2
22:45 64.9 °F /  18.3 °C 52.9 °F /  11.6 °C 30.2in /  1021.7hPa WSW 4.9mph /  7.9km/h 7mph /  11.3km/h 65% 0in /  0.0mm 0 W/m2
22:50 64.8 °F /  18.2 °C 52.7 °F /  11.5 °C 30.2in /  1021.7hPa WNW 2.9mph /  4.7km/h 6mph /  9.7km/h 65% 0in /  0.0mm 0 W/m2
22:55 64.6 °F /  18.1 °C 52.9 °F /  11.6 °C 30.2in /  1021.7hPa WNW 2mph /  3.2km/h 7mph /  11.3km/h 66% 0in /  0.0mm 0 W/m2
23:00 64.2 °F /  17.9 °C 52.7 °F /  11.5 °C 30.2in /  1021.7hPa West 2mph /  3.2km/h 6mph /  9.7km/h 66% 0in /  0.0mm 0 W/m2
23:05 64 °F /  17.8 °C 52.9 °F /  11.6 °C 30.2in /  1021.7hPa WNW 2mph /  3.2km/h 6mph /  9.7km/h 67% 0in /  0.0mm 0 W/m2
23:10 63.7 °F /  17.6 °C 52.5 °F /  11.4 °C 30.2in /  1021.7hPa West 2mph /  3.2km/h 3mph /  4.8km/h 67% 0in /  0.0mm 0 W/m2
23:15 63.3 °F /  17.4 °C 52.5 °F /  11.4 °C 30.2in /  1021.7hPa West 2mph /  3.2km/h 6mph /  9.7km/h 68% 0in /  0.0mm 0 W/m2
23:20 63 °F /  17.2 °C 52.2 °F /  11.2 °C 30.2in /  1021.7hPa West 2.9mph /  4.7km/h 3mph /  4.8km/h 68% 0in /  0.0mm 0 W/m2
23:25 62.8 °F /  17.1 °C 52.5 °F /  11.4 °C 30.2in /  1021.7hPa West 2.9mph /  4.7km/h 6mph /  9.7km/h 69% 0in /  0.0mm 0 W/m2
23:30 62.4 °F /  16.9 °C 52.5 °F /  11.4 °C 30.2in /  1021.7hPa WNW 2.9mph /  4.7km/h 5mph /  8km/h 70% 0in /  0.0mm 0 W/m2
23:36 62.4 °F /  16.9 °C 52.5 °F /  11.4 °C 30.2in /  1021.7hPa West 2mph /  3.2km/h 3mph /  4.8km/h 70% 0in /  0.0mm 0 W/m2
23:41 62.6 °F /  17 °C 52.3 °F /  11.3 °C 30.2in /  1021.7hPa WNW 2.9mph /  4.7km/h 3mph /  4.8km/h 69% 0in /  0.0mm 0 W/m2
23:46 62.6 °F /  17 °C 52.3 °F /  11.3 °C 30.2in /  1021.7hPa WNW 2mph /  3.2km/h 4mph /  6.4km/h 69% 0in /  0.0mm 0 W/m2
23:51 62.6 °F /  17 °C 52 °F /  11.1 °C 30.2in /  1021.7hPa WNW 0.9mph /  1.4km/h 4mph /  6.4km/h 68% 0in /  0.0mm 0 W/m2
23:56 62.4 °F /  16.9 °C 51.8 °F /  11 °C 30.2in /  1021.7hPa West 0.9mph /  1.4km/h 3mph /  4.8km/h 68% 0in /  0.0mm 0 W/m2
Juneau County Weather
Compliments of Weather Underground - 4 mb